Time,TemperatureF,DewpointF,PressureIn,WindDirection,WindDirectionDegrees,WindSpeedMPH,WindSpeedGustMPH,Humidity,HourlyPrecipIn,Conditions,Clouds,dailyrainin,SolarRadiationWatts/m^2,SoftwareType,DateUTC
2013-07-25 00:12:00,58.0,43.0,-100.00,South,180,10.0,16.0,58,0.00,,,0.00,0.000000,,2013-07-25 06:12:00,
2013-07-25 00:22:00,58.0,43.0,-100.00,South,180,10.0,16.0,58,0.00,,,0.00,0.000000,,2013-07-25 06:22:00,
2013-07-25 00:32:00,58.0,43.0,-100.00,South,180,10.0,16.0,58,0.00,,,0.00,0.000000,,2013-07-25 06:32:00,
2013-07-25 00:42:00,58.0,43.0,-100.00,South,180,10.0,16.0,58,0.00,,,0.00,0.000000,,2013-07-25 06:42:00,
2013-07-25 01:12:00,56.0,42.0,-100.00,South,183,11.0,16.0,60,0.00,,,0.00,0.000000,,2013-07-25 07:12:00,
2013-07-25 01:22:00,56.0,42.0,-100.00,South,183,11.0,16.0,60,0.00,,,0.00,0.000000,,2013-07-25 07:22:00,
2013-07-25 01:32:00,56.0,42.0,-100.00,South,183,11.0,16.0,60,0.00,,,0.00,0.000000,,2013-07-25 07:32:00,
2013-07-25 01:43:00,56.0,42.0,-100.00,South,183,11.0,16.0,60,0.00,,,0.00,0.000000,,2013-07-25 07:43:00,
2013-07-25 02:12:00,55.0,46.0,-100.00,SSW,197,12.0,20.0,72,0.00,,,0.00,0.000000,,2013-07-25 08:12:00,
2013-07-25 02:22:00,55.0,46.0,-100.00,SSW,197,12.0,20.0,72,0.00,,,0.00,0.000000,,2013-07-25 08:22:00,
2013-07-25 02:32:00,55.0,46.0,-100.00,SSW,197,12.0,20.0,72,0.00,,,0.00,0.000000,,2013-07-25 08:32:00,
2013-07-25 02:44:00,55.0,46.0,-100.00,SSW,197,12.0,20.0,72,0.00,,,0.00,0.000000,,2013-07-25 08:44:00,
2013-07-25 03:12:00,52.0,44.0,-100.00,East,95,4.0,13.0,74,0.00,,,0.00,0.000000,,2013-07-25 09:12:00,
2013-07-25 03:22:00,52.0,44.0,-100.00,East,95,4.0,13.0,74,0.00,,,0.00,0.000000,,2013-07-25 09:22:00,
2013-07-25 03:33:00,52.0,44.0,-100.00,East,95,4.0,13.0,74,0.00,,,0.00,0.000000,,2013-07-25 09:33:00,
2013-07-25 03:43:00,52.0,44.0,-100.00,East,95,4.0,13.0,74,0.00,,,0.00,0.000000,,2013-07-25 09:43:00,
2013-07-25 04:12:00,54.0,44.0,-100.00,NE,40,0.0,9.0,68,0.00,,,0.00,0.000000,,2013-07-25 10:12:00,
2013-07-25 04:22:00,54.0,44.0,-100.00,NE,40,0.0,9.0,68,0.00,,,0.00,0.000000,,2013-07-25 10:22:00,
2013-07-25 04:32:00,54.0,44.0,-100.00,NE,40,0.0,9.0,68,0.00,,,0.00,0.000000,,2013-07-25 10:32:00,
2013-07-25 04:42:00,54.0,44.0,-100.00,NE,40,0.0,9.0,68,0.00,,,0.00,0.000000,,2013-07-25 10:42:00,
2013-07-25 05:12:00,51.0,43.0,-100.00,ESE,109,1.0,5.0,75,0.00,,,0.00,0.000000,,2013-07-25 11:12:00,
2013-07-25 05:22:00,51.0,43.0,-100.00,ESE,109,1.0,5.0,75,0.00,,,0.00,0.000000,,2013-07-25 11:22:00,
2013-07-25 05:32:00,51.0,43.0,-100.00,ESE,109,1.0,5.0,75,0.00,,,0.00,0.000000,,2013-07-25 11:32:00,
2013-07-25 05:43:00,51.0,43.0,-100.00,ESE,109,1.0,5.0,75,0.00,,,0.00,0.000000,,2013-07-25 11:43:00,
2013-07-25 06:12:00,50.0,42.0,-100.00,NE,36,0.0,7.0,74,0.00,,,0.00,0.000000,,2013-07-25 12:12:00,
2013-07-25 06:22:00,50.0,42.0,-100.00,NE,36,0.0,7.0,74,0.00,,,0.00,0.000000,,2013-07-25 12:22:00,
2013-07-25 06:32:00,50.0,42.0,-100.00,NE,36,0.0,7.0,74,0.00,,,0.00,0.000000,,2013-07-25 12:32:00,
2013-07-25 06:45:00,50.0,42.0,-100.00,NE,36,0.0,7.0,74,0.00,,,0.00,0.000000,,2013-07-25 12:45:00,
2013-07-25 07:12:00,52.0,47.0,-100.00,South,189,2.0,5.0,82,0.00,,,0.00,21.000000,,2013-07-25 13:12:00,
2013-07-25 07:22:00,52.0,47.0,-100.00,South,189,2.0,5.0,82,0.00,,,0.00,21.000000,,2013-07-25 13:22:00,
2013-07-25 07:33:00,52.0,47.0,-100.00,South,189,2.0,5.0,82,0.00,,,0.00,21.000000,,2013-07-25 13:33:00,
2013-07-25 07:42:00,52.0,47.0,-100.00,South,189,2.0,5.0,82,0.00,,,0.00,21.000000,,2013-07-25 13:42:00,
2013-07-25 08:12:00,55.0,46.0,-100.00,West,260,0.0,8.0,72,0.00,,,0.00,106.000000,,2013-07-25 14:12:00,
2013-07-25 08:22:00,55.0,46.0,-100.00,West,260,0.0,8.0,72,0.00,,,0.00,106.000000,,2013-07-25 14:22:00,
2013-07-25 08:33:00,55.0,46.0,-100.00,West,260,0.0,8.0,72,0.00,,,0.00,106.000000,,2013-07-25 14:33:00,
2013-07-25 08:43:00,55.0,46.0,-100.00,West,260,0.0,8.0,72,0.00,,,0.00,106.000000,,2013-07-25 14:43:00,
2013-07-25 09:12:00,58.0,48.0,-100.00,SSW,205,7.0,9.0,69,0.00,,,0.00,440.000000,,2013-07-25 15:12:00,
2013-07-25 09:22:00,58.0,48.0,-100.00,SSW,205,7.0,9.0,69,0.00,,,0.00,440.000000,,2013-07-25 15:22:00,
2013-07-25 09:32:00,58.0,48.0,-100.00,SSW,205,7.0,9.0,69,0.00,,,0.00,440.000000,,2013-07-25 15:32:00,
2013-07-25 09:44:00,58.0,48.0,-100.00,SSW,205,7.0,9.0,69,0.00,,,0.00,440.000000,,2013-07-25 15:44:00,
2013-07-25 10:33:00,68.0,50.0,-100.00,North,7,2.0,9.0,53,0.00,,,0.00,692.000000,,2013-07-25 16:33:00,
2013-07-25 10:45:00,68.0,50.0,-100.00,North,7,2.0,9.0,53,0.00,,,0.00,692.000000,,2013-07-25 16:45:00,
2013-07-25 11:12:00,69.0,47.0,-100.00,East,95,5.0,13.0,46,0.00,,,0.00,894.000000,,2013-07-25 17:12:00,
2013-07-25 11:22:00,69.0,47.0,-100.00,East,95,5.0,13.0,46,0.00,,,0.00,894.000000,,2013-07-25 17:22:00,
2013-07-25 11:32:00,69.0,47.0,-100.00,East,95,5.0,13.0,46,0.00,,,0.00,894.000000,,2013-07-25 17:32:00,
2013-07-25 11:43:00,69.0,47.0,-100.00,East,95,5.0,13.0,46,0.00,,,0.00,894.000000,,2013-07-25 17:43:00,
2013-07-25 12:12:00,72.0,48.0,-100.00,NW,306,5.0,15.0,42,0.00,,,0.00,1059.000000,,2013-07-25 18:12:00,
2013-07-25 12:22:00,72.0,48.0,-100.00,NW,306,5.0,15.0,42,0.00,,,0.00,1059.000000,,2013-07-25 18:22:00,
2013-07-25 12:33:00,72.0,48.0,-100.00,NW,306,5.0,15.0,42,0.00,,,0.00,1059.000000,,2013-07-25 18:33:00,
2013-07-25 12:43:00,72.0,48.0,-100.00,NW,306,5.0,15.0,42,0.00,,,0.00,1059.000000,,2013-07-25 18:43:00,
2013-07-25 13:12:00,74.0,42.0,-100.00,WNW,298,9.0,19.0,32,0.00,,,0.00,1097.000000,,2013-07-25 19:12:00,
2013-07-25 13:22:00,74.0,42.0,-100.00,WNW,298,9.0,19.0,32,0.00,,,0.00,1097.000000,,2013-07-25 19:22:00,
2013-07-25 13:33:00,74.0,42.0,-100.00,WNW,298,9.0,19.0,32,0.00,,,0.00,1097.000000,,2013-07-25 19:33:00,
2013-07-25 13:42:00,74.0,42.0,-100.00,WNW,298,9.0,19.0,32,0.00,,,0.00,1097.000000,,2013-07-25 19:42:00,
2013-07-25 14:12:00,73.0,41.0,-100.00,WNW,289,11.0,20.0,32,0.00,,,0.00,1149.000000,,2013-07-25 20:12:00,
2013-07-25 14:22:00,73.0,41.0,-100.00,WNW,289,11.0,20.0,32,0.00,,,0.00,1149.000000,,2013-07-25 20:22:00,
2013-07-25 14:32:00,73.0,41.0,-100.00,WNW,289,11.0,20.0,32,0.00,,,0.00,1149.000000,,2013-07-25 20:32:00,
2013-07-25 14:43:00,73.0,41.0,-100.00,WNW,289,11.0,20.0,32,0.00,,,0.00,1149.000000,,2013-07-25 20:43:00,
2013-07-25 15:12:00,77.0,40.0,-100.00,NNW,327,5.0,21.0,27,0.00,,,0.00,1193.000000,,2013-07-25 21:12:00,
2013-07-25 15:22:00,77.0,40.0,-100.00,NNW,327,5.0,21.0,27,0.00,,,0.00,1193.000000,,2013-07-25 21:22:00,
2013-07-25 15:32:00,77.0,40.0,-100.00,NNW,327,5.0,21.0,27,0.00,,,0.00,1193.000000,,2013-07-25 21:32:00,
2013-07-25 15:44:00,77.0,40.0,-100.00,NNW,327,5.0,21.0,27,0.00,,,0.00,1193.000000,,2013-07-25 21:44:00,
2013-07-25 16:12:00,78.0,38.0,-100.00,SW,236,6.0,19.0,24,0.00,,,0.00,981.000000,,2013-07-25 22:12:00,
2013-07-25 16:22:00,78.0,38.0,-100.00,SW,236,6.0,19.0,24,0.00,,,0.00,981.000000,,2013-07-25 22:22:00,
2013-07-25 16:32:00,78.0,38.0,-100.00,SW,236,6.0,19.0,24,0.00,,,0.00,981.000000,,2013-07-25 22:32:00,
2013-07-25 16:43:00,78.0,38.0,-100.00,SW,236,6.0,19.0,24,0.00,,,0.00,981.000000,,2013-07-25 22:43:00,
2013-07-25 17:12:00,69.0,39.0,-100.00,NE,41,13.0,24.0,33,-99.99,,,0.00,503.000000,,2013-07-25 23:12:00,
2013-07-25 17:22:00,69.0,39.0,-100.00,NE,41,13.0,24.0,33,-99.99,,,0.00,503.000000,,2013-07-25 23:22:00,
2013-07-25 17:32:00,69.0,39.0,-100.00,NE,41,13.0,24.0,33,-99.99,,,0.00,503.000000,,2013-07-25 23:32:00,
2013-07-25 18:12:00,69.0,37.0,-100.00,ENE,64,11.0,24.0,31,0.00,,,0.00,597.000000,,2013-07-26 00:12:00,
2013-07-25 18:22:00,69.0,37.0,-100.00,ENE,64,11.0,24.0,31,0.00,,,0.00,597.000000,,2013-07-26 00:22:00,
2013-07-25 18:43:00,69.0,37.0,-100.00,ENE,64,11.0,24.0,31,0.00,,,0.00,597.000000,,2013-07-26 00:43:00,
2013-07-25 19:12:00,71.0,39.0,-100.00,NW,324,4.0,18.0,31,0.00,,,0.00,462.000000,,2013-07-26 01:12:00,
2013-07-25 19:22:00,71.0,39.0,-100.00,NW,324,4.0,18.0,31,0.00,,,0.00,462.000000,,2013-07-26 01:22:00,
2013-07-25 19:32:00,71.0,39.0,-100.00,NW,324,4.0,18.0,31,0.00,,,0.00,462.000000,,2013-07-26 01:32:00,
2013-07-25 19:43:00,71.0,39.0,-100.00,NW,324,4.0,18.0,31,0.00,,,0.00,462.000000,,2013-07-26 01:43:00,
2013-07-25 20:12:00,69.0,40.0,-100.00,NW,318,4.0,11.0,35,0.00,,,0.00,100.000000,,2013-07-26 02:12:00,
2013-07-25 20:22:00,69.0,40.0,-100.00,NW,318,4.0,11.0,35,0.00,,,0.00,100.000000,,2013-07-26 02:22:00,
2013-07-25 20:32:00,69.0,40.0,-100.00,NW,318,4.0,11.0,35,0.00,,,0.00,100.000000,,2013-07-26 02:32:00,
2013-07-25 20:43:00,69.0,40.0,-100.00,NW,318,4.0,11.0,35,0.00,,,0.00,100.000000,,2013-07-26 02:43:00,
2013-07-25 21:12:00,65.0,39.0,-100.00,WNW,289,4.0,8.0,39,0.00,,,0.00,16.000000,,2013-07-26 03:12:00,
2013-07-25 21:22:00,65.0,39.0,-100.00,WNW,289,4.0,8.0,39,0.00,,,0.00,16.000000,,2013-07-26 03:22:00,
2013-07-25 21:32:00,65.0,39.0,-100.00,WNW,289,4.0,8.0,39,0.00,,,0.00,16.000000,,2013-07-26 03:32:00,
2013-07-25 21:43:00,65.0,39.0,-100.00,WNW,289,4.0,8.0,39,0.00,,,0.00,16.000000,,2013-07-26 03:43:00,
2013-07-25 22:12:00,63.0,40.0,-100.00,NW,321,3.0,8.0,43,0.00,,,0.00,0.000000,,2013-07-26 04:12:00,
2013-07-25 22:22:00,63.0,40.0,-100.00,NW,321,3.0,8.0,43,0.00,,,0.00,0.000000,,2013-07-26 04:22:00,
2013-07-25 22:32:00,63.0,40.0,-100.00,NW,321,3.0,8.0,43,0.00,,,0.00,0.000000,,2013-07-26 04:32:00,
2013-07-25 22:42:00,63.0,40.0,-100.00,NW,321,3.0,8.0,43,0.00,,,0.00,0.000000,,2013-07-26 04:42:00,
2013-07-25 23:12:00,62.0,41.0,-100.00,West,264,1.0,8.0,46,0.00,,,0.00,0.000000,,2013-07-26 05:12:00,
2013-07-25 23:22:00,62.0,41.0,-100.00,West,264,1.0,8.0,46,0.00,,,0.00,0.000000,,2013-07-26 05:22:00,
2013-07-25 23:32:00,62.0,41.0,-100.00,West,264,1.0,8.0,46,0.00,,,0.00,0.000000,,2013-07-26 05:32:00,
2013-07-25 23:43:00,62.0,41.0,-100.00,West,264,1.0,8.0,46,0.00,,,0.00,0.000000,,2013-07-26 05:43:00,